createdAt,value
2018-04-28T00:00:34.901Z,0
2018-04-28T00:01:35.572Z,0
2018-04-28T00:02:36.254Z,0
2018-04-28T00:03:36.932Z,0
2018-04-28T00:04:37.597Z,0
2018-04-28T00:05:38.269Z,0
2018-04-28T00:06:38.940Z,0
2018-04-28T00:07:39.610Z,0
2018-04-28T00:08:40.286Z,0
2018-04-28T00:09:40.961Z,0
2018-04-28T00:10:41.627Z,0
2018-04-28T00:11:42.300Z,0
2018-04-28T00:12:42.976Z,0
2018-04-28T00:13:43.646Z,0
2018-04-28T00:14:44.318Z,0
2018-04-28T00:15:44.984Z,0
2018-04-28T00:16:45.656Z,0
2018-04-28T00:17:46.330Z,0
2018-04-28T00:18:47.002Z,0
2018-04-28T00:19:47.671Z,0
2018-04-28T00:20:48.349Z,0
2018-04-28T00:21:49.019Z,0
2018-04-28T00:22:49.690Z,0
2018-04-28T00:23:50.361Z,0
2018-04-28T00:24:51.034Z,0
2018-04-28T00:25:51.705Z,0
2018-04-28T00:26:52.376Z,0
2018-04-28T00:27:53.046Z,0
2018-04-28T00:28:53.716Z,0
2018-04-28T00:29:54.388Z,0
2018-04-28T00:30:55.067Z,0
2018-04-28T00:31:55.736Z,0
2018-04-28T00:32:56.411Z,0
2018-04-28T00:33:57.088Z,0
2018-04-28T00:34:57.759Z,0
2018-04-28T00:35:58.432Z,0
2018-04-28T00:36:59.106Z,0
2018-04-28T00:37:59.785Z,0
2018-04-28T00:39:00.457Z,0
2018-04-28T00:40:01.131Z,0
2018-04-28T00:41:01.802Z,0
2018-04-28T00:42:02.474Z,0
2018-04-28T00:43:03.145Z,0
2018-04-28T00:44:03.825Z,0
2018-04-28T00:45:04.499Z,0
2018-04-28T00:46:05.174Z,0
2018-04-28T00:47:05.844Z,0
2018-04-28T00:48:06.515Z,0
2018-04-28T00:49:07.188Z,0
2018-04-28T00:50:07.866Z,0
2018-04-28T00:51:08.550Z,0
2018-04-28T00:52:09.204Z,0
2018-04-28T00:53:09.876Z,0
2018-04-28T00:54:10.545Z,0
2018-04-28T00:55:11.219Z,0
2018-04-28T00:56:11.890Z,0
2018-04-28T00:57:12.568Z,0
2018-04-28T00:58:13.240Z,0
2018-04-28T00:59:13.913Z,0
2018-04-28T01:00:14.582Z,0
2018-04-28T01:01:15.255Z,0
2018-04-28T01:02:15.932Z,0
2018-04-28T01:03:16.603Z,0
2018-04-28T01:04:17.275Z,0
2018-04-28T01:05:17.949Z,0
2018-04-28T01:06:18.620Z,0
2018-04-28T01:07:19.291Z,0
2018-04-28T01:08:19.968Z,0
2018-04-28T01:09:20.637Z,0
2018-04-28T01:10:21.350Z,0
2018-04-28T01:11:21.978Z,0
2018-04-28T01:12:22.651Z,0
2018-04-28T01:13:23.326Z,0
2018-04-28T01:14:23.998Z,0
2018-04-28T01:15:24.669Z,0
2018-04-28T01:16:25.339Z,0
2018-04-28T01:17:26.013Z,0
2018-04-28T01:18:26.685Z,0
2018-04-28T01:19:27.353Z,0
2018-04-28T01:20:28.029Z,0
2018-04-28T01:21:28.700Z,0
2018-04-28T01:22:29.374Z,0
2018-04-28T01:23:30.044Z,0
2018-04-28T01:24:30.716Z,0
2018-04-28T01:25:31.394Z,0
2018-04-28T01:26:32.058Z,0
2018-04-28T01:27:32.732Z,0
2018-04-28T01:28:33.401Z,0
2018-04-28T01:29:34.072Z,0
2018-04-28T01:30:34.747Z,0
2018-04-28T01:31:35.422Z,0
2018-04-28T01:32:36.093Z,0
2018-04-28T01:33:36.771Z,0
2018-04-28T01:34:37.442Z,0
2018-04-28T01:35:38.118Z,0
2018-04-28T01:36:38.788Z,0
2018-04-28T01:37:39.458Z,0
2018-04-28T01:38:40.138Z,0
2018-04-28T01:39:40.814Z,0
2018-04-28T01:40:41.488Z,0
2018-04-28T01:41:42.156Z,0
2018-04-28T01:42:42.829Z,0
2018-04-28T01:43:43.502Z,0
2018-04-28T01:44:44.176Z,0
2018-04-28T01:45:44.854Z,0
2018-04-28T01:46:45.529Z,0
2018-04-28T01:47:46.200Z,0
2018-04-28T01:48:46.881Z,0
2018-04-28T01:49:47.552Z,0
2018-04-28T01:50:48.223Z,0
2018-04-28T01:51:48.897Z,0
2018-04-28T01:52:49.568Z,0
2018-04-28T01:53:50.241Z,0
2018-04-28T01:54:50.913Z,0
2018-04-28T01:55:51.583Z,0
2018-04-28T01:56:52.257Z,0
2018-04-28T01:57:52.928Z,0
2018-04-28T01:58:53.599Z,0
2018-04-28T01:59:54.274Z,0
2018-04-28T02:00:54.948Z,0
2018-04-28T02:01:55.616Z,0
2018-04-28T02:02:56.289Z,0
2018-04-28T02:03:56.959Z,0
2018-04-28T02:04:57.630Z,0
2018-04-28T02:05:58.306Z,0
2018-04-28T02:06:58.975Z,0
2018-04-28T02:07:59.653Z,0
2018-04-28T02:09:00.326Z,0
2018-04-28T02:10:00.995Z,0
2018-04-28T02:11:01.667Z,0
2018-04-28T02:12:02.341Z,0
2018-04-28T02:13:03.012Z,0
2018-04-28T02:14:03.679Z,0
2018-04-28T02:15:04.350Z,0
2018-04-28T02:16:05.023Z,0
2018-04-28T02:17:05.696Z,0
2018-04-28T02:18:06.363Z,0
2018-04-28T02:19:07.034Z,0
2018-04-28T02:20:07.704Z,0
2018-04-28T02:21:08.378Z,0
2018-04-28T02:22:09.065Z,0
2018-04-28T02:23:09.739Z,0
2018-04-28T02:24:10.412Z,0
2018-04-28T02:25:11.081Z,0
2018-04-28T02:26:11.755Z,0
2018-04-28T02:27:12.431Z,0
2018-04-28T02:28:13.095Z,0
2018-04-28T02:29:13.769Z,0
2018-04-28T02:30:14.440Z,0
2018-04-28T02:31:15.117Z,0
2018-04-28T02:32:15.789Z,0
2018-04-28T02:33:16.460Z,0
2018-04-28T02:34:17.139Z,0
2018-04-28T02:35:17.809Z,0
2018-04-28T02:36:18.482Z,0
2018-04-28T02:37:19.153Z,0
2018-04-28T02:38:19.824Z,0
2018-04-28T02:39:20.492Z,0
2018-04-28T02:40:21.161Z,0
2018-04-28T02:41:21.834Z,0
2018-04-28T02:42:22.505Z,0
2018-04-28T02:43:23.187Z,0
2018-04-28T02:44:23.858Z,0
2018-04-28T02:45:24.532Z,0
2018-04-28T02:46:25.204Z,0
2018-04-28T02:47:25.876Z,0
2018-04-28T02:48:26.555Z,0
2018-04-28T02:49:27.220Z,0
2018-04-28T02:50:27.887Z,0
2018-04-28T02:51:28.561Z,0
2018-04-28T02:52:29.232Z,0
2018-04-28T02:53:29.907Z,0
2018-04-28T02:54:30.582Z,0
2018-04-28T02:55:31.254Z,0
2018-04-28T02:56:31.925Z,0
2018-04-28T02:57:32.604Z,0
2018-04-28T02:58:33.276Z,0
2018-04-28T02:59:33.951Z,0
2018-04-28T03:00:34.625Z,0
2018-04-28T03:01:35.288Z,0
2018-04-28T03:02:35.971Z,0
2018-04-28T03:03:36.660Z,0
2018-04-28T03:04:37.330Z,0
2018-04-28T03:05:38.000Z,0
2018-04-28T03:06:38.680Z,0
2018-04-28T03:07:39.351Z,0
2018-04-28T03:08:40.025Z,0
2018-04-28T03:09:40.696Z,0
2018-04-28T03:10:41.365Z,0
2018-04-28T03:11:42.035Z,0
2018-04-28T03:12:42.711Z,0
2018-04-28T03:13:43.380Z,0
2018-04-28T03:14:44.057Z,0
2018-04-28T03:15:44.729Z,0
2018-04-28T03:16:45.403Z,0
2018-04-28T03:17:46.076Z,0
2018-04-28T03:18:46.753Z,0
2018-04-28T03:19:47.423Z,0
2018-04-28T03:20:48.108Z,0
2018-04-28T03:21:48.774Z,0
2018-04-28T03:22:49.448Z,0
2018-04-28T03:23:50.124Z,0
2018-04-28T03:24:50.796Z,0
2018-04-28T03:25:51.473Z,0
2018-04-28T03:26:52.144Z,0
2018-04-28T03:27:52.815Z,0
2018-04-28T03:28:53.487Z,0
2018-04-28T03:29:54.160Z,0
2018-04-28T03:30:54.831Z,0
2018-04-28T03:31:55.515Z,0
2018-04-28T03:32:56.173Z,0
2018-04-28T03:33:56.852Z,0
2018-04-28T03:34:57.527Z,0
2018-04-28T03:35:58.199Z,0
2018-04-28T03:36:58.863Z,0
2018-04-28T03:37:59.539Z,4
2018-04-28T03:39:00.210Z,4
2018-04-28T03:40:00.881Z,0
2018-04-28T03:41:01.557Z,4
2018-04-28T03:42:02.232Z,4
2018-04-28T03:43:02.900Z,4
2018-04-28T03:44:03.572Z,4
2018-04-28T03:45:04.247Z,8
2018-04-28T03:46:04.921Z,8
2018-04-28T03:47:05.596Z,8
2018-04-28T03:48:06.268Z,12
2018-04-28T03:49:06.943Z,16
2018-04-28T03:50:07.615Z,16
2018-04-28T03:51:08.289Z,20
2018-04-28T03:52:08.959Z,20
2018-04-28T03:53:09.629Z,28
2018-04-28T03:54:10.313Z,32
2018-04-28T03:55:10.985Z,32
2018-04-28T03:56:11.656Z,36
2018-04-28T03:57:12.325Z,44
2018-04-28T03:58:12.996Z,48
2018-04-28T03:59:13.672Z,52
2018-04-28T04:00:14.358Z,56
2018-04-28T04:01:15.029Z,60
2018-04-28T04:02:15.704Z,68
2018-04-28T04:03:16.372Z,72
2018-04-28T04:04:17.043Z,80
2018-04-28T04:05:17.717Z,84
2018-04-28T04:06:18.386Z,92
2018-04-28T04:07:19.058Z,100
2018-04-28T04:08:19.732Z,108
2018-04-28T04:09:20.404Z,124
2018-04-28T04:10:21.079Z,132
2018-04-28T04:11:21.753Z,144
2018-04-28T04:12:22.427Z,156
2018-04-28T04:13:23.104Z,164
2018-04-28T04:14:23.789Z,172
2018-04-28T04:15:24.466Z,180
2018-04-28T04:16:25.137Z,196
2018-04-28T04:17:25.813Z,204
2018-04-28T04:18:26.481Z,208
2018-04-28T04:19:27.165Z,212
2018-04-28T04:20:27.833Z,220
2018-04-28T04:21:28.510Z,240
2018-04-28T04:22:29.187Z,256
2018-04-28T04:23:29.857Z,268
2018-04-28T04:24:30.529Z,280
2018-04-28T04:25:31.210Z,292
2018-04-28T04:26:31.954Z,304
2018-04-28T04:27:32.556Z,300
2018-04-28T04:28:33.236Z,304
2018-04-28T04:29:33.909Z,312
2018-04-28T04:30:34.583Z,308
2018-04-28T04:31:35.255Z,288
2018-04-28T04:32:35.928Z,276
2018-04-28T04:33:36.600Z,284
2018-04-28T04:34:37.270Z,264
2018-04-28T04:35:37.942Z,248
2018-04-28T04:36:38.616Z,248
2018-04-28T04:37:39.301Z,268
2018-04-28T04:38:39.966Z,284
2018-04-28T04:39:40.638Z,312
2018-04-28T04:40:41.314Z,332
2018-04-28T04:41:41.983Z,356
2018-04-28T04:42:42.670Z,372
2018-04-28T04:43:43.342Z,372
2018-04-28T04:44:44.018Z,372
2018-04-28T04:45:44.692Z,388
2018-04-28T04:46:45.366Z,408
2018-04-28T04:47:46.038Z,440
2018-04-28T04:48:46.715Z,496
2018-04-28T04:49:47.399Z,556
2018-04-28T04:50:48.072Z,620
2018-04-28T04:51:48.748Z,620
2018-04-28T04:52:49.434Z,640
2018-04-28T04:53:50.100Z,668
2018-04-28T04:54:50.780Z,692
2018-04-28T04:55:51.453Z,680
2018-04-28T04:56:52.132Z,740
2018-04-28T04:57:52.802Z,736
2018-04-28T04:58:53.484Z,784
2018-04-28T04:59:54.165Z,776
2018-04-28T05:00:54.834Z,792
2018-04-28T05:01:55.507Z,796
2018-04-28T05:02:56.183Z,796
2018-04-28T05:03:56.859Z,832
2018-04-28T05:04:57.532Z,848
2018-04-28T05:05:58.208Z,888
2018-04-28T05:06:58.881Z,900
2018-04-28T05:07:59.556Z,912
2018-04-28T05:09:00.234Z,904
2018-04-28T05:10:00.904Z,868
2018-04-28T05:11:01.580Z,928
2018-04-28T05:12:02.252Z,964
2018-04-28T05:13:02.928Z,1024
2018-04-28T05:14:03.605Z,1108
2018-04-28T05:15:04.279Z,1192
2018-04-28T05:16:04.954Z,1276
2018-04-28T05:17:05.631Z,1384
2018-04-28T05:18:06.304Z,1376
2018-04-28T05:19:07.064Z,1408
2018-04-28T05:20:07.665Z,1428
2018-04-28T05:21:08.338Z,1440
2018-04-28T05:22:09.013Z,1432
2018-04-28T05:23:09.691Z,1468
2018-04-28T05:24:10.366Z,1484
2018-04-28T05:25:11.040Z,1504
2018-04-28T05:26:11.714Z,1576
2018-04-28T05:27:12.393Z,1484
2018-04-28T05:28:13.081Z,1564
2018-04-28T05:29:13.755Z,1628
2018-04-28T05:30:14.430Z,1676
2018-04-28T05:31:15.102Z,1732
2018-04-28T05:32:15.782Z,1780
2018-04-28T05:33:16.458Z,1828
2018-04-28T05:34:17.137Z,1896
2018-04-28T05:35:17.812Z,1936
2018-04-28T05:36:18.488Z,2000
2018-04-28T05:37:19.165Z,2072
2018-04-28T05:38:19.855Z,2124
2018-04-28T05:39:20.519Z,2100
2018-04-28T05:40:21.197Z,2224
2018-04-28T05:41:21.881Z,2176
2018-04-28T05:42:22.556Z,2168
2018-04-28T05:43:23.231Z,2224
2018-04-28T05:44:23.906Z,2288
2018-04-28T05:45:24.581Z,2380
2018-04-28T05:46:25.270Z,2332
2018-04-28T05:47:25.943Z,2256
2018-04-28T05:48:26.633Z,2160
2018-04-28T05:49:27.293Z,2128
2018-04-28T05:50:27.970Z,2080
2018-04-28T05:51:28.647Z,2080
2018-04-28T05:52:29.324Z,2208
2018-04-28T05:53:30.007Z,2208
2018-04-28T05:54:30.682Z,2092
2018-04-28T05:55:31.357Z,2064
2018-04-28T05:56:32.036Z,2092
2018-04-28T05:57:32.710Z,2124
2018-04-28T05:58:33.386Z,2164
2018-04-28T05:59:34.064Z,2228
2018-04-28T06:00:34.739Z,2304
2018-04-28T06:01:35.416Z,2436
2018-04-28T06:02:36.092Z,2508
2018-04-28T06:03:36.772Z,2560
2018-04-28T06:04:37.453Z,2596
2018-04-28T06:05:38.137Z,2708
2018-04-28T06:06:38.809Z,2724
2018-04-28T06:07:39.490Z,2772
2018-04-28T06:08:40.176Z,2956
2018-04-28T06:09:40.851Z,2728
2018-04-28T06:10:41.529Z,2736
2018-04-28T06:11:42.213Z,2652
2018-04-28T06:12:42.887Z,2684
2018-04-28T06:13:43.564Z,2480
2018-04-28T06:14:44.244Z,2404
2018-04-28T06:15:44.924Z,2372
2018-04-28T06:16:45.602Z,2384
2018-04-28T06:17:46.279Z,2428
2018-04-28T06:18:46.956Z,2460
2018-04-28T06:19:47.665Z,2492
2018-04-28T06:20:48.313Z,2396
2018-04-28T06:21:48.991Z,2364
2018-04-28T06:22:49.669Z,2328
2018-04-28T06:23:50.355Z,2296
2018-04-28T06:24:51.032Z,2304
2018-04-28T06:25:51.760Z,2304
2018-04-28T06:26:52.385Z,2260
2018-04-28T06:27:53.065Z,2124
2018-04-28T06:28:53.743Z,2044
2018-04-28T06:29:54.421Z,1960
2018-04-28T06:30:55.107Z,1880
2018-04-28T06:31:55.787Z,1844
2018-04-28T06:32:56.460Z,1904
2018-04-28T06:33:57.137Z,2060
2018-04-28T06:34:57.814Z,2256
2018-04-28T06:35:58.505Z,2404
2018-04-28T06:36:59.185Z,2476
2018-04-28T06:37:59.868Z,2500
2018-04-28T06:39:00.549Z,2476
2018-04-28T06:40:01.230Z,2468
2018-04-28T06:41:01.905Z,2448
2018-04-28T06:42:02.585Z,2536
2018-04-28T06:43:03.259Z,2688
2018-04-28T06:44:03.943Z,2832
2018-04-28T06:45:04.618Z,2904
2018-04-28T06:46:05.302Z,2916
2018-04-28T06:47:05.981Z,2908
2018-04-28T06:48:06.658Z,2852
2018-04-28T06:49:07.331Z,2772
2018-04-28T06:50:08.012Z,2716
2018-04-28T06:51:08.695Z,2708
2018-04-28T06:52:09.362Z,2668
2018-04-28T06:53:10.047Z,2608
2018-04-28T06:54:10.727Z,2540
2018-04-28T06:55:11.403Z,2452
2018-04-28T06:56:12.078Z,2384
2018-04-28T06:57:12.765Z,2412
2018-04-28T06:58:13.439Z,2528
2018-04-28T06:59:14.115Z,2676
2018-04-28T07:00:14.794Z,2776
2018-04-28T07:01:15.467Z,2900
2018-04-28T07:02:16.164Z,2932
2018-04-28T07:03:16.833Z,2988
2018-04-28T07:04:17.525Z,3064
2018-04-28T07:05:18.207Z,3212
2018-04-28T07:06:18.890Z,3328
2018-04-28T07:07:19.573Z,3444
2018-04-28T07:08:20.249Z,3480
2018-04-28T07:09:20.929Z,3560
2018-04-28T07:10:21.611Z,3628
2018-04-28T07:11:22.289Z,3692
2018-04-28T07:12:22.973Z,3736
2018-04-28T07:13:23.656Z,3800
2018-04-28T07:14:24.335Z,3868
2018-04-28T07:15:25.011Z,3936
2018-04-28T07:16:25.701Z,3944
2018-04-28T07:17:26.381Z,3892
2018-04-28T07:18:27.060Z,3912
2018-04-28T07:19:27.741Z,3952
2018-04-28T07:20:28.418Z,4044
2018-04-28T07:21:29.100Z,4160
2018-04-28T07:22:29.781Z,4256
2018-04-28T07:23:30.464Z,4332
2018-04-28T07:24:31.156Z,4424
2018-04-28T07:25:31.836Z,4464
2018-04-28T07:26:32.520Z,4536
2018-04-28T07:27:33.200Z,4564
2018-04-28T07:28:33.877Z,4564
2018-04-28T07:29:34.562Z,4632
2018-04-28T07:30:35.238Z,4772
2018-04-28T07:31:35.921Z,4840
2018-04-28T07:32:36.598Z,4816
2018-04-28T07:33:37.285Z,4744
2018-04-28T07:34:37.965Z,4712
2018-04-28T07:35:38.650Z,4724
2018-04-28T07:36:39.329Z,4764
2018-04-28T07:37:40.008Z,4804
2018-04-28T07:38:40.699Z,4848
2018-04-28T07:39:41.368Z,4916
2018-04-28T07:40:42.046Z,4972
2018-04-28T07:41:42.722Z,5004
2018-04-28T07:42:43.402Z,5112
2018-04-28T07:43:44.088Z,5084
2018-04-28T07:44:44.768Z,5008
2018-04-28T07:45:45.449Z,4984
2018-04-28T07:46:46.136Z,4852
2018-04-28T07:47:46.814Z,5176
2018-04-28T07:48:47.492Z,4880
2018-04-28T07:49:48.169Z,4880
2018-04-28T07:50:48.848Z,5356
2018-04-28T07:51:49.544Z,5232
2018-04-28T07:52:50.224Z,5404
2018-04-28T07:53:50.911Z,5588
2018-04-28T07:54:51.588Z,5656
2018-04-28T07:55:52.279Z,5660
2018-04-28T07:56:52.958Z,4968
2018-04-28T07:57:53.643Z,4964
2018-04-28T07:58:54.320Z,4792
2018-04-28T07:59:54.998Z,4460
2018-04-28T08:00:55.682Z,4604
2018-04-28T08:01:56.369Z,5136
2018-04-28T08:02:57.049Z,5456
2018-04-28T08:03:57.732Z,5668
2018-04-28T08:04:58.418Z,5796
2018-04-28T08:05:59.094Z,5788
2018-04-28T08:06:59.856Z,5860
2018-04-28T08:08:00.457Z,5788
2018-04-28T08:09:01.155Z,5792
2018-04-28T08:10:01.832Z,5748
2018-04-28T08:11:02.524Z,5608
2018-04-28T08:12:03.205Z,5500
2018-04-28T08:13:03.889Z,5424
2018-04-28T08:14:04.570Z,5364
2018-04-28T08:15:05.257Z,5300
2018-04-28T08:16:05.939Z,5280
2018-04-28T08:17:06.626Z,5284
2018-04-28T08:18:07.313Z,5504
2018-04-28T08:19:07.993Z,5708
2018-04-28T08:20:08.683Z,5864
2018-04-28T08:21:09.359Z,5784
2018-04-28T08:22:10.044Z,5872
2018-04-28T08:23:10.719Z,6092
2018-04-28T08:24:11.398Z,6364
2018-04-28T08:25:12.081Z,6668
2018-04-28T08:26:12.765Z,6896
2018-04-28T08:27:13.444Z,7188
2018-04-28T08:28:14.123Z,7384
2018-04-28T08:29:14.819Z,7476
2018-04-28T08:30:15.500Z,7544
2018-04-28T08:31:16.186Z,7676
2018-04-28T08:32:16.875Z,7764
2018-04-28T08:33:17.557Z,7704
2018-04-28T08:34:18.237Z,7680
2018-04-28T08:35:18.923Z,7472
2018-04-28T08:36:19.673Z,6976
2018-04-28T08:37:20.317Z,6756
2018-04-28T08:38:20.977Z,6164
2018-04-28T08:39:21.661Z,6012
2018-04-28T08:40:22.346Z,5644
2018-04-28T08:41:23.033Z,5348
2018-04-28T08:42:23.721Z,5220
2018-04-28T08:43:24.399Z,5012
2018-04-28T08:44:25.083Z,4892
2018-04-28T08:45:25.841Z,5004
2018-04-28T08:46:26.444Z,5224
2018-04-28T08:47:27.126Z,5444
2018-04-28T08:48:27.807Z,5740
2018-04-28T08:49:28.561Z,5976
2018-04-28T08:50:29.176Z,5976
2018-04-28T08:51:29.868Z,6024
2018-04-28T08:52:30.552Z,6296
2018-04-28T08:53:31.234Z,5808
2018-04-28T08:54:31.917Z,5476
2018-04-28T08:55:32.608Z,5160
2018-04-28T08:56:33.378Z,5380
2018-04-28T08:57:33.973Z,5256
2018-04-28T08:58:34.658Z,5020
2018-04-28T08:59:35.338Z,5036
2018-04-28T09:00:36.025Z,4864
2018-04-28T09:01:36.702Z,4752
2018-04-28T09:02:37.387Z,4868
2018-04-28T09:03:38.139Z,4748
2018-04-28T09:04:38.751Z,4708
2018-04-28T09:05:39.428Z,4660
2018-04-28T09:06:40.125Z,4640
2018-04-28T09:07:40.802Z,4768
2018-04-28T09:08:41.492Z,4760
2018-04-28T09:09:42.173Z,4760
2018-04-28T09:10:42.852Z,4640
2018-04-28T09:11:43.539Z,4616
2018-04-28T09:12:44.227Z,4600
2018-04-28T09:13:44.915Z,4472
2018-04-28T09:14:45.595Z,4456
2018-04-28T09:15:46.276Z,4456
2018-04-28T09:16:46.961Z,4328
2018-04-28T09:17:47.640Z,4280
2018-04-28T09:18:48.328Z,4232
2018-04-28T09:19:49.010Z,4228
2018-04-28T09:20:49.695Z,4220
2018-04-28T09:21:50.381Z,4244
2018-04-28T09:22:51.073Z,4252
2018-04-28T09:23:51.751Z,4312
2018-04-28T09:24:52.433Z,4392
2018-04-28T09:25:53.117Z,4468
2018-04-28T09:26:53.797Z,4524
2018-04-28T09:27:54.479Z,4580
2018-04-28T09:28:55.175Z,4676
2018-04-28T09:29:55.854Z,4704
2018-04-28T09:30:56.535Z,4652
2018-04-28T09:31:57.228Z,4752
2018-04-28T09:32:57.929Z,4844
2018-04-28T09:33:58.529Z,4988
2018-04-28T09:34:59.263Z,5220
2018-04-28T09:35:59.952Z,5272
2018-04-28T09:37:00.631Z,5388
2018-04-28T09:38:01.316Z,5492
2018-04-28T09:39:02.005Z,5536
2018-04-28T09:40:02.785Z,5492
2018-04-28T09:41:03.384Z,5376
2018-04-28T09:42:04.068Z,5252
2018-04-28T09:43:04.750Z,5148
2018-04-28T09:44:05.431Z,5028
2018-04-28T09:45:06.113Z,4932
2018-04-28T09:46:06.796Z,4828
2018-04-28T09:47:07.476Z,4748
2018-04-28T09:48:08.154Z,4808
2018-04-28T09:49:08.843Z,4804
2018-04-28T09:50:09.528Z,4876
2018-04-28T09:51:10.217Z,4868
2018-04-28T09:52:10.912Z,4944
2018-04-28T09:53:11.589Z,4968
2018-04-28T09:54:12.278Z,5120
2018-04-28T09:55:12.965Z,5248
2018-04-28T09:56:13.652Z,5396
2018-04-28T09:57:14.332Z,5524
2018-04-28T09:58:15.012Z,5616
2018-04-28T09:59:15.690Z,5732
2018-04-28T10:00:16.371Z,5808
2018-04-28T10:01:17.052Z,5936
2018-04-28T10:02:17.734Z,6000
2018-04-28T10:03:18.420Z,6112
2018-04-28T10:04:19.106Z,6108
2018-04-28T10:05:19.784Z,6100
2018-04-28T10:06:20.467Z,6052
2018-04-28T10:07:21.149Z,6024
2018-04-28T10:08:21.824Z,6000
2018-04-28T10:09:22.586Z,5972
2018-04-28T10:10:23.191Z,5888
2018-04-28T10:11:23.872Z,5816
2018-04-28T10:12:24.562Z,5580
2018-04-28T10:13:25.963Z,5892
2018-04-28T10:14:26.665Z,5968
2018-04-28T10:15:27.356Z,6120
2018-04-28T10:16:28.042Z,6196
2018-04-28T10:17:28.736Z,6176
2018-04-28T10:18:29.419Z,6180
2018-04-28T10:19:30.112Z,5956
2018-04-28T10:20:30.790Z,5924
2018-04-28T10:21:31.474Z,5944
2018-04-28T10:22:32.158Z,5772
2018-04-28T10:23:32.838Z,5860
2018-04-28T10:24:33.521Z,5836
2018-04-28T10:25:34.200Z,5860
2018-04-28T10:26:34.891Z,5928
2018-04-28T10:27:35.589Z,5944
2018-04-28T10:28:36.988Z,5884
2018-04-28T10:29:37.698Z,5784
2018-04-28T10:30:38.381Z,5732
2018-04-28T10:31:39.066Z,5612
2018-04-28T10:32:39.746Z,5520
2018-04-28T10:33:41.147Z,5452
2018-04-28T10:34:42.307Z,5368
2018-04-28T10:35:43.098Z,5624
2018-04-28T10:36:43.786Z,5700
2018-04-28T10:37:44.463Z,5688
2018-04-28T10:38:45.148Z,5576
2018-04-28T10:39:45.839Z,5468
2018-04-28T10:40:46.528Z,5160
2018-04-28T10:41:47.210Z,4960
2018-04-28T10:42:47.900Z,5064
2018-04-28T10:43:48.577Z,5208
2018-04-28T10:44:49.280Z,5288
2018-04-28T10:45:49.977Z,5236
2018-04-28T10:46:50.664Z,5228
2018-04-28T10:47:51.349Z,5212
2018-04-28T10:48:52.025Z,5372
2018-04-28T10:49:52.716Z,5504
2018-04-28T10:50:53.408Z,5584
2018-04-28T10:51:54.080Z,5664
2018-04-28T10:52:54.773Z,5712
2018-04-28T10:53:55.500Z,5628
2018-04-28T10:54:56.140Z,5648
2018-04-28T10:55:56.828Z,5568
2018-04-28T10:56:57.522Z,5608
2018-04-28T10:57:58.201Z,5560
2018-04-28T10:58:58.888Z,5640
2018-04-28T10:59:59.571Z,5556
2018-04-28T11:01:00.250Z,5524
2018-04-28T11:02:00.933Z,5780
2018-04-28T11:03:01.620Z,6092
2018-04-28T11:04:02.302Z,6296
2018-04-28T11:05:02.988Z,6412
2018-04-28T11:06:03.676Z,6528
2018-04-28T11:07:04.364Z,6832
2018-04-28T11:08:05.049Z,7132
2018-04-28T11:09:05.734Z,7412
2018-04-28T11:10:06.418Z,7676
2018-04-28T11:11:07.100Z,7748
2018-04-28T11:12:07.781Z,7592
2018-04-28T11:13:08.463Z,7656
2018-04-28T11:14:09.146Z,7972
2018-04-28T11:15:09.834Z,8092
2018-04-28T11:16:10.545Z,8036
2018-04-28T11:17:11.229Z,7960
2018-04-28T11:18:11.913Z,8324
2018-04-28T11:19:12.599Z,8764
2018-04-28T11:20:13.279Z,8904
2018-04-28T11:21:13.962Z,8876
2018-04-28T11:22:14.649Z,9132
2018-04-28T11:23:15.330Z,9268
2018-04-28T11:24:16.014Z,9316
2018-04-28T11:25:16.698Z,9132
2018-04-28T11:26:17.380Z,9008
2018-04-28T11:27:18.059Z,9080
2018-04-28T11:28:18.745Z,9372
2018-04-28T11:29:19.428Z,9780
2018-04-28T11:30:20.108Z,10552
2018-04-28T11:31:20.797Z,12632
2018-04-28T11:32:21.480Z,30208
2018-04-28T11:33:22.165Z,37184
2018-04-28T11:34:22.850Z,58432
2018-04-28T11:35:23.534Z,60416
2018-04-28T11:36:24.217Z,74144
2018-04-28T11:37:24.909Z,67808
2018-04-28T11:38:25.597Z,55808
2018-04-28T11:39:26.279Z,59968
2018-04-28T11:40:26.968Z,69152
2018-04-28T11:41:27.658Z,55712
2018-04-28T11:42:28.342Z,61216
2018-04-28T11:43:29.035Z,56064
2018-04-28T11:44:29.736Z,56256
2018-04-28T11:45:30.424Z,70688
2018-04-28T11:46:31.107Z,77632
2018-04-28T11:47:31.799Z,74080
2018-04-28T11:48:32.492Z,92032
2018-04-28T11:49:33.182Z,99776
2018-04-28T11:50:33.872Z,114784
2018-04-28T11:51:34.558Z,106144
2018-04-28T11:52:35.244Z,96416
2018-04-28T11:53:35.930Z,70528
2018-04-28T11:54:36.612Z,76608
2018-04-28T11:55:37.297Z,67264
2018-04-28T11:56:37.980Z,58208
2018-04-28T11:57:38.678Z,59776
2018-04-28T11:58:39.366Z,53376
2018-04-28T11:59:40.054Z,46144
2018-04-28T12:00:40.744Z,30400
2018-04-28T12:01:41.431Z,43680
2018-04-28T12:02:42.191Z,46752
2018-04-28T12:03:42.798Z,47008
2018-04-28T12:04:43.489Z,34752
2018-04-28T12:05:44.196Z,31776
2018-04-28T12:06:44.880Z,30144
2018-04-28T12:07:45.567Z,29952
2018-04-28T12:08:46.257Z,22848
2018-04-28T12:09:46.942Z,14356
2018-04-28T12:10:47.626Z,12496
2018-04-28T12:11:48.314Z,12260
2018-04-28T12:12:48.998Z,12224
2018-04-28T12:13:49.692Z,12288
2018-04-28T12:14:50.383Z,13664
2018-04-28T12:15:51.082Z,16544
2018-04-28T12:16:51.767Z,20128
2018-04-28T12:17:52.455Z,19936
2018-04-28T12:18:53.147Z,18304
2018-04-28T12:19:53.821Z,16736
2018-04-28T12:20:54.562Z,15584
2018-04-28T12:21:55.192Z,14720
2018-04-28T12:22:55.890Z,14332
2018-04-28T12:23:56.581Z,14880
2018-04-28T12:24:57.276Z,14044
2018-04-28T12:25:57.967Z,14244
2018-04-28T12:26:58.653Z,14296
2018-04-28T12:27:59.342Z,14060
2018-04-28T12:29:00.030Z,13524
2018-04-28T12:30:00.796Z,12996
2018-04-28T12:31:01.418Z,12592
2018-04-28T12:32:02.111Z,11884
2018-04-28T12:33:02.807Z,13028
2018-04-28T12:34:03.502Z,13512
2018-04-28T12:35:04.188Z,13592
2018-04-28T12:36:04.897Z,13456
2018-04-28T12:37:05.570Z,13576
2018-04-28T12:38:06.267Z,13664
2018-04-28T12:39:06.951Z,13448
2018-04-28T12:40:07.638Z,13368
2018-04-28T12:41:08.333Z,13460
2018-04-28T12:42:09.021Z,13084
2018-04-28T12:43:09.708Z,13040
2018-04-28T12:44:10.395Z,12748
2018-04-28T12:45:11.092Z,12484
2018-04-28T12:46:11.778Z,12448
2018-04-28T12:47:12.465Z,12112
2018-04-28T12:48:13.158Z,11816
2018-04-28T12:49:13.857Z,11508
2018-04-28T12:50:14.550Z,11604
2018-04-28T12:51:15.240Z,11532
2018-04-28T12:52:15.925Z,11988
2018-04-28T12:53:16.613Z,11380
2018-04-28T12:54:17.300Z,11668
2018-04-28T12:55:17.987Z,12108
2018-04-28T12:56:18.676Z,12464
2018-04-28T12:57:19.363Z,12824
2018-04-28T12:58:20.063Z,11888
2018-04-28T12:59:20.749Z,12644
2018-04-28T13:00:21.442Z,13268
2018-04-28T13:01:22.145Z,13408
2018-04-28T13:02:22.884Z,13452
2018-04-28T13:03:23.572Z,14148
2018-04-28T13:04:24.258Z,13908
2018-04-28T13:05:24.950Z,13176
2018-04-28T13:06:25.636Z,13684
2018-04-28T13:07:26.321Z,14380
2018-04-28T13:08:27.006Z,14680
2018-04-28T13:09:27.698Z,14528
2018-04-28T13:10:28.382Z,15456
2018-04-28T13:11:29.070Z,15584
2018-04-28T13:12:29.769Z,15872
2018-04-28T13:13:30.467Z,15488
2018-04-28T13:14:31.161Z,15456
2018-04-28T13:15:31.845Z,15200
2018-04-28T13:16:32.540Z,15744
2018-04-28T13:17:33.239Z,14816
2018-04-28T13:18:33.924Z,14036
2018-04-28T13:19:34.616Z,13652
2018-04-28T13:20:35.305Z,13712
2018-04-28T13:21:35.994Z,13236
2018-04-28T13:22:36.680Z,13076
2018-04-28T13:23:37.365Z,13644
2018-04-28T13:24:38.053Z,15776
2018-04-28T13:25:38.741Z,22208
2018-04-28T13:26:39.430Z,31968
2018-04-28T13:27:40.118Z,38464
2018-04-28T13:28:40.818Z,40960
2018-04-28T13:29:41.504Z,42880
2018-04-28T13:30:42.192Z,40640
2018-04-28T13:31:42.889Z,42240
2018-04-28T13:32:43.577Z,38624
2018-04-28T13:33:44.306Z,42944
2018-04-28T13:34:45.003Z,52224
2018-04-28T13:35:45.708Z,54048
2018-04-28T13:36:46.410Z,50688
2018-04-28T13:37:47.107Z,44448
2018-04-28T13:38:47.803Z,42848
2018-04-28T13:39:48.491Z,47680
2018-04-28T13:40:49.184Z,55200
2018-04-28T13:41:49.874Z,55744
2018-04-28T13:42:50.569Z,58976
2018-04-28T13:43:51.262Z,57568
2018-04-28T13:44:51.953Z,53792
2018-04-28T13:45:52.653Z,50688
2018-04-28T13:46:53.351Z,48544
2018-04-28T13:47:54.054Z,53408
2018-04-28T13:48:54.745Z,57760